Time;durP1;ratioP1;P1;durP2;ratioP2;P2;SDS_P1;SDS_P2;PMS_P1;PMS_P2;Temp;Humidity;BMP_temperature;BMP_pressure;BME280_temperature;BME280_humidity;BME280_pressure;Samples;Min_cycle;Max_cycle;Signal;HPM_P1;HPM_P2
2024/02/08 00:01:41;;;;;;;5.17;0.90;;;;;;;12.75;60.31;96238.41;5029173;28;20184;-68
2024/02/08 00:04:07;;;;;;;2.63;0.90;;;;;;;12.69;60.72;96233.09;5029431;28;20275;-68
2024/02/08 00:06:32;;;;;;;1.00;0.70;;;;;;;12.74;60.54;96236.00;5029398;28;20535;-69
2024/02/08 00:09:01;;;;;;;1.00;0.70;;;;;;;12.79;60.40;96232.78;5029658;28;20450;-67
2024/02/08 00:11:27;;;;;;;0.90;0.70;;;;;;;12.69;60.59;96233.94;5028659;28;20195;-68
2024/02/08 00:13:53;;;;;;;1.10;0.90;;;;;;;12.75;60.34;96227.91;5031440;28;20915;-68
2024/02/08 00:16:18;;;;;;;2.23;1.10;;;;;;;12.83;60.47;96226.16;5028808;28;20439;-66
2024/02/08 00:18:44;;;;;;;1.00;0.83;;;;;;;12.62;60.61;96232.25;5028880;28;20215;-67
2024/02/08 00:21:10;;;;;;;1.00;0.77;;;;;;;12.64;61.00;96230.25;5029390;28;20190;-68
2024/02/08 00:23:36;;;;;;;2.60;0.80;;;;;;;12.62;60.97;96227.78;5029936;28;20186;-67
2024/02/08 00:26:02;;;;;;;0.80;0.60;;;;;;;12.77;60.47;96219.00;5029641;28;20977;-69
2024/02/08 00:28:28;;;;;;;1.20;0.80;;;;;;;12.88;60.47;96207.97;5033115;28;20427;-68
2024/02/08 00:30:54;;;;;;;1.10;0.70;;;;;;;12.80;60.78;96216.00;4969331;28;20426;-67
2024/02/08 00:33:20;;;;;;;2.30;0.77;;;;;;;12.87;60.29;96214.22;5028377;28;20228;-68
2024/02/08 00:35:45;;;;;;;0.97;0.87;;;;;;;12.90;60.18;96204.16;5027767;28;20431;-67
2024/02/08 00:38:11;;;;;;;1.47;0.80;;;;;;;12.75;60.70;96212.13;5032789;28;20204;-67
2024/02/08 00:40:36;;;;;;;2.30;0.80;;;;;;;12.70;61.02;96209.28;5037759;28;20200;-68
2024/02/08 00:43:06;;;;;;;0.93;0.73;;;;;;;12.87;60.65;96201.91;5033270;28;20252;-68
2024/02/08 00:45:35;;;;;;;0.90;0.80;;;;;;;12.73;60.82;96210.69;5037354;28;20211;-67
2024/02/08 00:48:01;;;;;;;0.93;0.80;;;;;;;12.63;61.57;96204.97;5032646;28;20430;-66
2024/02/08 00:50:26;;;;;;;1.03;0.80;;;;;;;12.77;60.96;96205.88;5033042;28;20962;-68
2024/02/08 00:52:55;;;;;;;0.90;0.70;;;;;;;12.87;60.91;96195.81;5028408;28;20422;-68
2024/02/08 00:55:20;;;;;;;1.60;0.87;;;;;;;12.89;60.42;96205.16;5028220;28;20196;-69
2024/02/08 00:57:46;;;;;;;1.10;0.80;;;;;;;12.85;61.02;96203.91;5028423;28;20464;-67
2024/02/08 01:00:12;;;;;;;0.90;0.77;;;;;;;12.90;60.93;96208.59;5032901;28;20210;-67
2024/02/08 01:02:41;;;;;;;1.00;0.80;;;;;;;12.92;60.44;96201.34;4993890;28;20263;-67
2024/02/08 01:05:07;;;;;;;1.10;0.73;;;;;;;12.91;60.89;96199.72;5027551;28;20414;-68
2024/02/08 01:07:32;;;;;;;1.00;0.70;;;;;;;13.00;60.56;96200.38;5028047;28;20410;-67
2024/02/08 01:09:58;;;;;;;1.00;0.70;;;;;;;12.82;60.87;96196.41;5028546;28;20235;-69
2024/02/08 01:12:24;;;;;;;1.30;0.90;;;;;;;12.82;60.90;96200.88;5028288;28;20204;-67
2024/02/08 01:14:50;;;;;;;1.07;0.80;;;;;;;12.75;61.04;96206.06;5027971;28;20449;-67
2024/02/08 01:17:16;;;;;;;4.73;0.97;;;;;;;12.82;61.16;96199.03;5027148;28;20286;-67
2024/02/08 01:19:42;;;;;;;1.00;0.70;;;;;;;12.66;61.86;96208.00;5025397;28;20544;-67
2024/02/08 01:22:07;;;;;;;1.40;1.00;;;;;;;12.86;61.16;96212.59;5032171;28;20705;-67
2024/02/08 01:24:34;;;;;;;0.93;0.80;;;;;;;12.86;60.99;96213.44;5029209;28;20184;-68
2024/02/08 01:27:01;;;;;;;1.10;0.80;;;;;;;12.88;61.14;96218.50;5028355;28;20187;-68
2024/02/08 01:29:26;;;;;;;1.20;0.93;;;;;;;12.87;61.11;96228.22;5035746;28;20446;-69
2024/02/08 01:31:53;;;;;;;1.10;0.83;;;;;;;12.89;61.47;96215.69;5032286;28;20497;-68
2024/02/08 01:34:18;;;;;;;2.73;0.90;;;;;;;12.83;61.39;96220.91;5028175;28;20621;-67
2024/02/08 01:36:44;;;;;;;1.20;1.00;;;;;;;12.71;61.93;96220.59;5034046;28;20426;-68
2024/02/08 01:39:13;;;;;;;1.00;0.77;;;;;;;12.81;61.81;96220.28;5027244;28;20242;-68
2024/02/08 01:41:42;;;;;;;1.73;0.90;;;;;;;12.70;61.98;96222.41;5028894;28;20191;-66
2024/02/08 01:44:09;;;;;;;1.40;0.97;;;;;;;12.69;61.84;96207.66;5037444;28;20456;-67
2024/02/08 01:46:38;;;;;;;1.10;0.80;;;;;;;12.60;62.16;96214.84;5032983;28;20457;-67
2024/02/08 01:49:07;;;;;;;0.90;0.70;;;;;;;12.59;62.27;96220.31;5041659;28;20525;-66
2024/02/08 01:51:34;;;;;;;1.53;1.00;;;;;;;12.79;61.89;96214.38;5030149;28;20430;-67
2024/02/08 01:54:01;;;;;;;1.03;0.73;;;;;;;12.85;61.72;96205.75;5026480;28;20573;-68
2024/02/08 01:56:28;;;;;;;1.03;0.80;;;;;;;12.87;61.80;96211.59;5030915;28;20429;-68
2024/02/08 01:58:53;;;;;;;0.90;0.70;;;;;;;12.81;61.77;96205.28;5025619;28;20458;-67
2024/02/08 02:01:22;;;;;;;1.97;1.00;;;;;;;12.77;61.91;96213.75;5011021;28;20957;-67
2024/02/08 02:03:48;;;;;;;1.33;0.97;;;;;;;12.84;61.68;96204.13;5039217;28;20202;-68
2024/02/08 02:06:14;;;;;;;1.17;0.70;;;;;;;12.93;61.61;96196.88;5030573;28;20434;-66
2024/02/08 02:08:41;;;;;;;1.77;1.00;;;;;;;12.86;61.81;96204.72;5037772;28;20421;-68
2024/02/08 02:11:11;;;;;;;2.90;1.00;;;;;;;12.73;62.24;96203.63;5039678;28;20441;-68
2024/02/08 02:13:38;;;;;;;0.97;0.87;;;;;;;12.75;62.34;96206.06;5039922;28;20567;-68
2024/02/08 02:16:04;;;;;;;1.00;0.80;;;;;;;12.71;62.34;96200.38;5030887;28;20445;-69
2024/02/08 02:18:31;;;;;;;1.13;0.90;;;;;;;12.81;62.27;96204.50;5030386;28;20951;-68
2024/02/08 02:20:57;;;;;;;1.13;0.70;;;;;;;12.88;62.31;96197.44;5038748;28;20429;-68
2024/02/08 02:23:22;;;;;;;2.13;0.80;;;;;;;12.91;62.11;96197.06;5031175;28;20425;-68
2024/02/08 02:25:48;;;;;;;0.90;0.70;;;;;;;12.81;62.30;96199.22;5037767;28;20649;-68
2024/02/08 02:28:15;;;;;;;1.07;0.80;;;;;;;12.72;62.70;96191.50;5029496;28;20184;-69
2024/02/08 02:30:44;;;;;;;1.67;0.90;;;;;;;12.61;62.76;96189.38;5029415;28;20817;-69
2024/02/08 02:33:13;;;;;;;1.70;0.87;;;;;;;12.76;62.40;96184.03;5032857;28;20423;-68
2024/02/08 02:35:39;;;;;;;0.90;0.70;;;;;;;12.88;62.05;96173.78;5039304;28;20482;-69
2024/02/08 02:38:04;;;;;;;0.90;0.60;;;;;;;13.00;61.79;96181.97;5029308;28;20454;-68
2024/02/08 02:40:30;;;;;;;1.30;0.80;;;;;;;12.97;61.76;96172.66;5031560;28;20464;-68
2024/02/08 02:42:56;;;;;;;1.00;0.87;;;;;;;12.86;62.28;96175.78;5030704;28;20826;-67
2024/02/08 02:45:23;;;;;;;1.03;0.67;;;;;;;13.00;61.46;96177.50;5038754;28;20278;-68
2024/02/08 02:47:53;;;;;;;0.80;0.50;;;;;;;13.05;61.71;96171.66;5037284;28;20418;-68
2024/02/08 02:50:25;;;;;;;2.70;1.47;;;;;;;12.97;61.58;96170.03;5030810;28;20449;-68
2024/02/08 02:52:51;;;;;;;0.90;0.60;;;;;;;12.83;62.21;96166.47;5033209;28;20421;-68
2024/02/08 02:55:17;;;;;;;1.27;0.70;;;;;;;12.94;61.86;96172.22;5042023;28;20979;-67
2024/02/08 02:57:43;;;;;;;0.90;0.60;;;;;;;12.82;62.03;96171.94;5031548;28;20545;-70
2024/02/08 03:00:22;;;;;;;1.87;0.70;;;;;;;12.99;61.60;96178.50;5036280;28;20583;-69
2024/02/08 03:02:51;;;;;;;1.80;0.70;;;;;;;12.90;61.68;96167.34;5029076;28;20187;-68
2024/02/08 03:05:18;;;;;;;0.90;0.50;;;;;;;13.04;61.56;96162.19;5035669;28;20437;-67
2024/02/08 03:07:45;;;;;;;0.90;0.60;;;;;;;13.00;61.88;96156.47;5029450;28;20449;-69
2024/02/08 03:10:12;;;;;;;1.00;0.60;;;;;;;13.12;61.35;96154.13;5030412;28;20866;-68
2024/02/08 03:12:38;;;;;;;0.80;0.50;;;;;;;13.09;61.33;96153.72;5030266;28;20790;-67
2024/02/08 03:15:08;;;;;;;1.07;0.63;;;;;;;12.90;61.65;96150.75;5029955;28;20431;-68
2024/02/08 03:17:38;;;;;;;1.63;0.60;;;;;;;12.99;61.74;96154.03;5030151;28;20509;-68
2024/02/08 03:20:08;;;;;;;1.53;0.70;;;;;;;12.96;61.53;96138.66;5037803;28;20794;-68
2024/02/08 03:22:35;;;;;;;0.80;0.50;;;;;;;12.95;61.77;96143.09;5034238;28;20415;-67
2024/02/08 03:25:06;;;;;;;0.83;0.60;;;;;;;13.08;61.21;96159.97;5037804;28;20428;-66
2024/02/08 03:27:32;;;;;;;2.47;0.50;;;;;;;13.03;61.57;96140.31;5033729;28;20915;-68
2024/02/08 03:29:59;;;;;;;0.80;0.60;;;;;;;13.15;61.09;96129.25;5035061;28;20867;-68
2024/02/08 03:32:27;;;;;;;0.80;0.50;;;;;;;12.89;61.92;96139.44;5032476;28;20521;-68
2024/02/08 03:34:53;;;;;;;0.80;0.50;;;;;;;12.97;61.71;96135.84;5035351;28;20545;-67
2024/02/08 03:37:20;;;;;;;1.20;0.50;;;;;;;12.95;61.67;96144.91;5029972;28;20517;-67
2024/02/08 03:39:46;;;;;;;1.20;0.57;;;;;;;13.11;61.04;96139.34;5029126;28;20207;-67
2024/02/08 03:42:14;;;;;;;1.30;0.70;;;;;;;13.13;61.08;96136.50;5033320;28;20935;-67
2024/02/08 03:44:39;;;;;;;1.10;0.60;;;;;;;13.17;60.91;96145.66;5028992;28;20931;-68
2024/02/08 03:47:07;;;;;;;1.10;0.50;;;;;;;13.15;60.81;96147.66;5028807;28;20565;-69
2024/02/08 03:49:33;;;;;;;0.80;0.60;;;;;;;13.09;61.30;96143.97;5033756;28;20203;-67
2024/02/08 03:51:59;;;;;;;0.90;0.60;;;;;;;13.18;60.78;96152.53;5032405;28;20521;-68
2024/02/08 03:54:24;;;;;;;1.43;0.60;;;;;;;12.99;61.31;96160.09;5034195;28;20267;-67
2024/02/08 03:56:50;;;;;;;1.40;0.60;;;;;;;13.04;61.56;96152.47;5027385;28;20230;-68
2024/02/08 03:59:29;;;;;;;2.23;0.70;;;;;;;13.24;61.03;96146.47;5029251;28;20223;-67
2024/02/08 04:02:01;;;;;;;1.00;0.70;;;;;;;13.30;60.71;96145.72;5037512;28;20425;-66
2024/02/08 04:04:34;;;;;;;1.10;0.70;;;;;;;13.36;60.92;96150.19;5036069;28;20541;-68
2024/02/08 04:07:14;;;;;;;1.10;0.70;;;;;;;13.19;61.18;96148.91;5027718;28;20411;-67
2024/02/08 04:09:48;;;;;;;0.90;0.80;;;;;;;12.96;62.12;96150.00;5035763;28;20955;-67
2024/02/08 04:56:08;;;;;;;0.80;0.60;;;;;;;13.09;62.26;96128.19;5027489;28;20430;-67
2024/02/08 04:58:41;;;;;;;1.00;0.70;;;;;;;13.10;62.19;96123.78;5027263;28;20446;-67
2024/02/08 05:01:10;;;;;;;1.10;0.63;;;;;;;13.24;61.74;96128.06;5027827;28;20429;-67
2024/02/08 05:03:37;;;;;;;1.00;0.60;;;;;;;13.30;61.31;96121.22;5027975;28;20428;-68
2024/02/08 05:06:10;;;;;;;3.33;0.80;;;;;;;13.30;61.86;96118.56;5030167;28;20436;-68
2024/02/08 05:08:41;;;;;;;1.93;0.90;;;;;;;13.24;62.02;96114.91;5025770;28;20422;-67
2024/02/08 05:11:10;;;;;;;0.90;0.80;;;;;;;13.16;62.22;96117.72;5032133;28;20482;-69
2024/02/08 05:13:39;;;;;;;2.43;0.97;;;;;;;13.20;62.16;96105.81;5028118;28;20424;-68
2024/02/08 05:16:15;;;;;;;1.87;0.80;;;;;;;13.17;62.77;96108.81;5026640;28;20533;-67
2024/02/08 05:18:42;;;;;;;0.90;0.67;;;;;;;13.22;62.73;96098.53;5027387;28;20450;-67
2024/02/08 05:21:11;;;;;;;0.90;0.63;;;;;;;13.17;62.88;96099.09;5032542;28;20430;-67
2024/02/08 05:23:38;;;;;;;0.80;0.63;;;;;;;13.32;62.84;96091.06;5033196;28;20452;-70
2024/02/08 05:26:11;;;;;;;2.80;1.00;;;;;;;13.30;63.03;96098.34;5028004;28;20442;-68
2024/02/08 05:28:37;;;;;;;1.80;0.80;;;;;;;13.15;63.54;96111.66;5035397;28;20418;-69
2024/02/08 05:31:08;;;;;;;1.30;0.90;;;;;;;13.12;63.68;96108.59;5027762;28;20426;-68
2024/02/08 05:33:33;;;;;;;1.30;0.90;;;;;;;13.18;63.54;96121.75;5031477;28;20433;-68
2024/02/08 05:36:00;;;;;;;0.90;0.70;;;;;;;13.03;64.63;96119.28;5032218;28;20888;-69
2024/02/08 05:38:26;;;;;;;1.53;1.07;;;;;;;12.94;64.77;96123.06;5027457;28;20231;-69
2024/02/08 05:40:52;;;;;;;1.43;1.17;;;;;;;12.96;64.98;96114.97;5026129;28;20481;-68
2024/02/08 05:43:27;;;;;;;1.73;1.10;;;;;;;12.92;64.95;96116.41;5033017;28;20185;-68
2024/02/08 05:45:53;;;;;;;1.10;1.00;;;;;;;13.00;64.68;96106.50;5026242;28;20430;-67
2024/02/08 05:48:19;;;;;;;2.17;1.40;;;;;;;13.06;64.68;96097.03;5027575;28;20507;-69
2024/02/08 05:50:44;;;;;;;1.10;0.90;;;;;;;13.01;64.62;96100.25;5029365;28;20466;-68
2024/02/08 05:53:10;;;;;;;1.30;0.97;;;;;;;13.06;64.63;96097.84;5040057;28;20245;-68
2024/02/08 05:55:39;;;;;;;1.50;0.90;;;;;;;13.09;64.62;96103.72;5030139;28;20852;-69
2024/02/08 05:58:06;;;;;;;0.90;0.80;;;;;;;13.04;64.74;96102.50;5026571;28;20291;-69
2024/02/08 06:00:32;;;;;;;1.67;1.00;;;;;;;13.08;64.70;96113.41;5027234;28;20840;-68
2024/02/08 06:03:05;;;;;;;1.40;0.80;;;;;;;12.77;65.64;96112.06;5034542;28;20417;-68
2024/02/08 06:05:31;;;;;;;0.90;0.70;;;;;;;12.98;65.07;96110.34;5028249;28;20426;-68
2024/02/08 06:08:02;;;;;;;1.83;0.80;;;;;;;12.97;65.07;96114.81;5036435;28;20422;-66
2024/02/08 06:10:45;;;;;;;2.10;0.97;;;;;;;12.97;65.09;96114.81;5031199;28;20203;-67
2024/02/08 06:13:14;;;;;;;1.53;0.70;;;;;;;13.03;64.98;96114.00;5028147;28;20423;-69
2024/02/08 06:15:46;;;;;;;1.27;0.73;;;;;;;12.94;65.43;96115.19;5026264;28;20442;-67
2024/02/08 06:18:19;;;;;;;2.13;0.93;;;;;;;13.03;65.36;96116.63;5037686;28;21146;-69
2024/02/08 06:20:59;;;;;;;1.20;0.70;;;;;;;12.90;65.57;96108.69;5033022;28;20473;-69
2024/02/08 06:23:27;;;;;;;3.10;0.70;;;;;;;12.77;66.16;96124.38;5027802;28;20422;-68
2024/02/08 06:28:46;;;;;;;1.27;0.87;;;;;;;12.93;65.86;96134.59;5026444;28;20896;-69
2024/02/08 06:31:17;;;;;;;1.37;1.00;;;;;;;12.92;66.14;96138.22;5025586;28;20486;-68
2024/02/08 06:34:09;;;;;;;0.80;0.60;;;;;;;12.90;66.40;96142.84;5030224;28;20422;-69
2024/02/08 06:36:42;;;;;;;1.37;0.73;;;;;;;12.81;66.89;96131.69;5020727;28;20426;-68
2024/02/08 06:39:23;;;;;;;1.10;0.70;;;;;;;12.85;66.76;96134.75;5027431;28;20498;-68
2024/02/08 06:42:23;;;;;;;1.23;1.00;;;;;;;12.81;67.26;96133.50;5031243;28;20434;-69
2024/02/08 06:45:24;;;;;;;1.00;0.90;;;;;;;12.97;66.50;96125.31;5026529;28;20418;-68
2024/02/08 07:39:34;;;;;;;2.17;1.07;;;;;;;12.87;68.11;96125.66;5023540;28;20560;-70
2024/02/08 07:44:54;;;;;;;2.00;0.90;;;;;;;12.96;67.88;96122.88;5024286;28;20423;-69
2024/02/08 07:47:24;;;;;;;2.07;0.93;;;;;;;12.90;68.13;96129.72;5027140;28;21088;-68
2024/02/08 07:50:04;;;;;;;3.10;1.50;;;;;;;13.05;67.46;96117.25;5029608;28;20442;-69
2024/02/08 07:52:55;;;;;;;3.10;1.30;;;;;;;13.10;67.60;96114.03;5021123;28;20496;-68
2024/02/08 07:55:46;;;;;;;1.90;1.50;;;;;;;13.03;67.67;96103.50;5027980;28;20422;-70
2024/02/08 07:58:09;;;;;;;4.30;1.23;;;;;;;13.01;67.91;96118.66;5020812;28;20451;-68
2024/02/08 08:03:00;;;;;;;1.23;0.80;;;;;;;13.09;67.82;96116.88;5030898;28;20469;-70
2024/02/08 08:05:31;;;;;;;1.00;0.83;;;;;;;13.26;67.17;96112.91;5025879;28;20192;-69
2024/02/08 08:08:02;;;;;;;1.00;0.80;;;;;;;13.34;67.12;96110.13;5029968;28;21066;-69
2024/02/08 08:10:33;;;;;;;1.53;0.93;;;;;;;13.34;66.86;96115.38;5028879;28;20438;-69
2024/02/08 08:13:06;;;;;;;1.77;0.83;;;;;;;13.40;66.86;96116.44;5043636;28;20879;-69
2024/02/08 08:15:49;;;;;;;0.90;0.70;;;;;;;13.46;66.81;96117.47;5024740;28;20522;-69
2024/02/08 08:18:23;;;;;;;0.87;0.67;;;;;;;13.29;67.23;96124.88;5026632;28;20481;-69
2024/02/08 08:20:57;;;;;;;0.90;0.80;;;;;;;13.23;67.13;96123.00;5029732;28;20537;-70
2024/02/08 08:23:26;;;;;;;1.20;0.97;;;;;;;13.47;66.69;96113.84;5039126;28;20430;-70
2024/02/08 08:26:23;;;;;;;1.20;1.00;;;;;;;13.54;66.70;96116.50;5027950;28;20438;-70
2024/02/08 08:28:52;;;;;;;1.53;0.90;;;;;;;13.54;66.81;96114.66;5023190;28;20407;-69
2024/02/08 08:31:46;;;;;;;1.10;0.90;;;;;;;13.64;66.49;96109.81;5033242;28;20940;-71
2024/02/08 08:36:58;;;;;;;0.90;0.80;;;;;;;14.06;65.85;96101.00;5033518;28;20434;-69
2024/02/08 08:42:24;;;;;;;1.87;1.00;;;;;;;14.19;65.01;96103.66;5029432;28;20474;-69
2024/02/08 08:44:51;;;;;;;1.83;1.00;;;;;;;14.16;64.84;96113.78;5030074;28;20457;-71
2024/02/08 08:47:24;;;;;;;1.90;0.90;;;;;;;14.10;65.03;96105.66;5032419;28;20488;-70
2024/02/08 08:49:50;;;;;;;2.40;0.90;;;;;;;14.13;64.83;96102.63;5032639;28;20497;-70
2024/02/08 08:52:25;;;;;;;0.97;0.80;;;;;;;14.09;64.96;96111.13;5029498;28;20430;-70
2024/02/08 08:55:17;;;;;;;2.63;0.80;;;;;;;14.15;64.88;96114.78;5031156;28;20413;-70
2024/02/08 08:57:42;;;;;;;1.00;0.80;;;;;;;14.18;64.95;96103.81;5027502;28;20450;-69
2024/02/08 09:00:11;;;;;;;1.20;1.00;;;;;;;14.26;64.77;96107.09;5027951;28;20544;-70
2024/02/08 09:02:42;;;;;;;1.40;1.00;;;;;;;14.01;64.74;96112.13;5020629;28;20186;-69
2024/02/08 09:05:17;;;;;;;0.90;0.80;;;;;;;13.97;64.97;96109.09;5029077;28;20469;-68
2024/02/08 09:07:45;;;;;;;1.37;0.80;;;;;;;13.84;65.55;96111.72;5035684;28;20415;-70
2024/02/08 09:10:14;;;;;;;2.50;0.80;;;;;;;14.00;65.34;96107.88;5027169;28;20450;-68
2024/02/08 09:12:47;;;;;;;1.63;0.90;;;;;;;13.96;64.84;96096.13;5043858;28;20881;-69
2024/02/08 09:15:26;;;;;;;0.90;0.70;;;;;;;13.94;65.27;96108.66;5027457;28;20442;-71
2024/02/08 09:17:51;;;;;;;1.53;1.00;;;;;;;14.02;65.03;96105.03;5027927;28;20442;-70
2024/02/08 09:20:23;;;;;;;2.03;1.23;;;;;;;14.08;65.01;96104.25;5028073;28;20546;-69
2024/02/08 09:22:49;;;;;;;1.60;0.90;;;;;;;14.09;64.89;96100.59;5031324;28;20236;-70
2024/02/08 09:25:16;;;;;;;1.27;0.77;;;;;;;14.14;64.91;96103.44;5046035;28;20427;-71
2024/02/08 09:27:46;;;;;;;0.90;0.70;;;;;;;14.10;65.01;96110.94;5035733;28;20418;-69
2024/02/08 09:30:13;;;;;;;0.97;0.83;;;;;;;14.15;64.92;96099.78;5032424;28;20819;-69
2024/02/08 09:32:45;;;;;;;1.27;1.07;;;;;;;13.98;65.76;96102.81;5028009;28;20479;-69
2024/02/08 09:35:16;;;;;;;2.50;0.90;;;;;;;14.07;65.40;96100.78;5027578;28;20801;-69
2024/02/08 09:37:45;;;;;;;1.10;0.93;;;;;;;14.14;65.38;96098.16;5027666;28;20553;-69
2024/02/08 09:42:57;;;;;;;1.10;0.93;;;;;;;14.37;64.45;96092.50;5032045;28;20422;-70
2024/02/08 09:48:06;;;;;;;1.00;0.73;;;;;;;13.99;64.89;96090.44;5025542;28;20468;-70
2024/02/08 09:50:36;;;;;;;1.20;1.00;;;;;;;14.40;64.24;96093.91;5032605;28;20446;-69
2024/02/08 09:53:18;;;;;;;1.10;0.80;;;;;;;14.40;64.30;96086.00;5027199;28;20969;-69
2024/02/08 09:55:55;;;;;;;3.13;1.00;;;;;;;14.36;64.12;96084.81;5020526;28;20529;-69
2024/02/08 09:58:38;;;;;;;1.47;0.83;;;;;;;14.41;63.97;96082.34;5026795;28;20446;-69
2024/02/08 10:01:21;;;;;;;1.03;0.70;;;;;;;14.11;63.81;96096.75;5026603;28;20575;-71
2024/02/08 10:04:05;;;;;;;1.70;0.80;;;;;;;14.41;63.45;96092.91;5027452;28;20421;-71
2024/02/08 10:09:36;;;;;;;1.03;0.73;;;;;;;14.74;63.00;96086.81;5024700;28;20446;-70
2024/02/08 10:12:11;;;;;;;1.10;0.80;;;;;;;14.73;62.52;96090.47;5023800;28;20438;-70
2024/02/08 10:14:41;;;;;;;2.70;0.90;;;;;;;14.61;62.89;96086.81;5029872;28;20442;-71
2024/02/08 10:17:27;;;;;;;1.17;0.90;;;;;;;14.58;62.45;96082.72;5032233;28;20427;-70
2024/02/08 10:22:53;;;;;;;1.83;0.90;;;;;;;14.66;62.23;96069.34;5033763;28;20429;-70
2024/02/08 10:28:21;;;;;;;1.47;0.70;;;;;;;14.37;62.88;96066.13;5035397;28;20773;-70
2024/02/08 10:30:59;;;;;;;0.90;0.70;;;;;;;14.56;62.71;96059.22;5029100;28;20479;-71
2024/02/08 10:33:48;;;;;;;1.63;0.90;;;;;;;14.64;61.96;96060.84;5031357;28;20853;-69
2024/02/08 10:36:18;;;;;;;1.30;0.80;;;;;;;14.65;62.42;96057.19;5030741;28;20462;-70
2024/02/08 10:38:57;;;;;;;1.87;0.80;;;;;;;14.37;63.12;96060.03;5030733;28;20459;-72
2024/02/08 10:41:38;;;;;;;0.90;0.70;;;;;;;14.53;62.79;96050.91;5031607;28;20458;-70
2024/02/08 10:44:05;;;;;;;1.23;0.80;;;;;;;14.63;62.92;96050.47;5027604;28;20501;-68
2024/02/08 10:46:33;;;;;;;1.33;0.80;;;;;;;14.64;63.31;96054.72;5031004;28;20495;-70
2024/02/08 10:49:08;;;;;;;1.50;1.10;;;;;;;14.57;63.04;96045.03;5036445;28;20531;-70
2024/02/08 10:51:35;;;;;;;2.33;0.90;;;;;;;14.61;63.42;96045.41;5033789;28;20422;-70
2024/02/08 10:54:08;;;;;;;5.07;0.73;;;;;;;14.18;64.26;96041.41;5045032;28;20430;-70
2024/02/08 10:56:48;;;;;;;1.37;0.90;;;;;;;14.44;64.05;96040.56;5033103;28;20426;-70
2024/02/08 11:02:08;;;;;;;0.90;0.70;;;;;;;14.51;63.52;96035.28;5040095;28;20426;-70
2024/02/08 11:04:40;;;;;;;1.57;0.90;;;;;;;14.61;64.04;96019.06;5001847;28;20844;-69
2024/02/08 11:07:18;;;;;;;1.30;0.77;;;;;;;14.69;64.09;96018.06;5041958;28;20432;-70
2024/02/08 11:09:44;;;;;;;1.50;0.73;;;;;;;14.68;63.68;96013.78;5042658;28;20813;-70
2024/02/08 11:12:23;;;;;;;1.20;0.70;;;;;;;14.90;63.06;96006.44;5040116;28;20426;-69
2024/02/08 11:14:56;;;;;;;0.90;0.77;;;;;;;14.87;62.99;96002.34;5032281;28;20441;-70
2024/02/08 11:17:24;;;;;;;1.20;0.90;;;;;;;14.76;62.99;96008.28;5043590;28;20445;-70
2024/02/08 11:19:56;;;;;;;1.13;0.80;;;;;;;14.97;62.67;95998.50;5035897;28;20594;-70
2024/02/08 11:22:43;;;;;;;2.10;0.97;;;;;;;15.15;62.70;96001.22;5042083;28;20426;-70
2024/02/08 11:25:19;;;;;;;2.13;1.60;;;;;;;15.33;61.96;95992.59;5034619;28;20418;-69
2024/02/08 11:27:48;;;;;;;1.20;0.93;;;;;;;15.29;62.14;95986.16;5029828;28;20491;-69
2024/02/08 11:30:19;;;;;;;1.07;0.87;;;;;;;15.41;61.57;95986.28;5031150;28;20500;-69
2024/02/08 11:33:04;;;;;;;0.90;0.70;;;;;;;15.41;61.25;95983.63;5030283;28;20438;-70
2024/02/08 11:35:35;;;;;;;1.50;0.70;;;;;;;15.51;60.92;95973.41;5030872;28;20414;-70
2024/02/08 11:38:21;;;;;;;2.40;0.73;;;;;;;15.22;60.61;95974.00;5030344;28;21206;-70
2024/02/08 11:40:47;;;;;;;1.20;1.00;;;;;;;15.34;61.04;95969.69;5031678;28;20456;-71
2024/02/08 11:43:23;;;;;;;2.43;0.80;;;;;;;15.51;60.43;95970.75;5030811;28;20545;-70
2024/02/08 11:45:53;;;;;;;1.73;1.00;;;;;;;15.57;60.31;95965.66;5030235;28;20414;-69
2024/02/08 11:48:33;;;;;;;3.17;1.07;;;;;;;15.54;60.08;95956.34;5027303;28;20708;-71
2024/02/08 11:51:09;;;;;;;2.80;1.07;;;;;;;15.60;59.88;95952.84;5028781;28;20434;-70
2024/02/08 11:53:36;;;;;;;2.63;1.17;;;;;;;15.07;61.14;95961.91;5036248;28;20418;-70
2024/02/08 11:56:08;;;;;;;2.10;0.80;;;;;;;15.35;60.54;95950.19;5041825;28;20418;-68
2024/02/08 11:58:40;;;;;;;2.90;1.00;;;;;;;15.47;60.26;95937.91;5051547;28;20461;-70
2024/02/08 12:01:06;;;;;;;3.57;1.10;;;;;;;15.56;59.88;95940.28;5033175;28;20467;-71
2024/02/08 12:03:32;;;;;;;3.17;1.10;;;;;;;15.38;59.96;95941.03;5029050;28;20846;-71
2024/02/08 12:05:57;;;;;;;3.93;1.40;;;;;;;15.47;60.05;95930.00;5030529;28;20426;-70
2024/02/08 12:08:24;;;;;;;2.93;1.60;;;;;;;15.51;60.01;95931.16;5029166;28;20665;-71
2024/02/08 12:10:53;;;;;;;3.17;1.50;;;;;;;15.52;59.71;95921.44;5021765;28;20704;-70
2024/02/08 12:13:38;;;;;;;1.40;0.90;;;;;;;15.52;59.22;95926.72;5028696;28;20469;-70
2024/02/08 12:16:04;;;;;;;2.10;0.97;;;;;;;15.54;59.44;95911.47;5024663;28;20525;-71
2024/02/08 12:18:30;;;;;;;2.30;1.13;;;;;;;15.47;59.07;95914.16;5028924;28;20537;-70
2024/02/08 12:20:57;;;;;;;5.40;1.50;;;;;;;15.44;58.99;95908.47;5029030;28;20442;-71
2024/02/08 12:23:41;;;;;;;4.63;1.43;;;;;;;15.71;58.25;95903.81;5029990;28;20357;-70
2024/02/08 12:26:08;;;;;;;5.23;1.17;;;;;;;15.73;57.70;95908.84;5034317;28;20424;-69
2024/02/08 12:28:37;;;;;;;3.80;1.40;;;;;;;15.76;57.66;95914.50;5040235;28;20407;-70
2024/02/08 12:31:07;;;;;;;4.80;1.17;;;;;;;15.92;57.12;95913.19;5028067;28;20450;-71
2024/02/08 12:33:33;;;;;;;3.37;0.87;;;;;;;15.76;56.98;95919.00;5028940;28;20434;-70
2024/02/08 12:35:59;;;;;;;3.83;1.70;;;;;;;15.89;57.02;95912.81;5040381;28;20514;-70
2024/02/08 12:38:26;;;;;;;4.40;1.43;;;;;;;16.06;56.41;95910.44;5035996;28;20223;-69
2024/02/08 12:40:51;;;;;;;4.07;1.40;;;;;;;16.16;56.02;95907.25;5034585;28;20203;-70
2024/02/08 12:43:19;;;;;;;5.50;1.40;;;;;;;16.02;55.70;95909.25;5027478;28;20485;-71
2024/02/08 12:45:54;;;;;;;7.93;1.20;;;;;;;16.31;55.05;95915.66;5027003;28;20190;-69
2024/02/08 12:48:20;;;;;;;4.70;1.10;;;;;;;16.37;54.55;95919.25;5031026;28;20826;-71
2024/02/08 12:50:55;;;;;;;3.30;1.20;;;;;;;16.50;54.61;95907.72;5028737;28;20453;-73
2024/02/08 12:53:21;;;;;;;4.93;1.33;;;;;;;16.39;54.25;95925.91;5023053;28;20492;-71
2024/02/08 12:55:49;;;;;;;7.47;1.07;;;;;;;16.42;54.22;95916.75;5028281;28;20450;-71
2024/02/08 12:58:18;;;;;;;4.07;1.20;;;;;;;16.36;53.92;95909.69;5032592;28;20446;-71
2024/02/08 13:00:57;;;;;;;8.33;1.90;;;;;;;16.45;53.58;95920.78;5028367;28;20508;-70
2024/02/08 13:03:26;;;;;;;3.63;1.37;;;;;;;16.49;53.51;95911.41;5027302;28;20532;-70
2024/02/08 13:05:51;;;;;;;7.57;1.73;;;;;;;16.63;53.24;95914.69;5031063;28;20431;-70
2024/02/08 13:08:21;;;;;;;5.83;1.40;;;;;;;16.70;53.07;95910.09;5031167;28;20415;-70
2024/02/08 13:10:56;;;;;;;8.20;1.43;;;;;;;16.83;52.50;95909.94;5030871;28;20242;-71
2024/02/08 13:13:25;;;;;;;9.00;2.07;;;;;;;16.91;52.14;95908.03;5030648;28;20793;-70
2024/02/08 13:16:01;;;;;;;10.23;1.60;;;;;;;17.02;51.45;95904.63;5027331;28;20516;-71
2024/02/08 13:18:32;;;;;;;8.60;2.00;;;;;;;17.04;51.35;95907.88;5027744;28;20450;-70
2024/02/08 13:20:58;;;;;;;13.73;1.70;;;;;;;17.17;50.98;95897.09;5027919;28;20447;-71
2024/02/08 13:23:24;;;;;;;7.80;1.70;;;;;;;17.19;50.67;95891.56;5036397;28;20424;-70
2024/02/08 13:25:54;;;;;;;10.07;2.57;;;;;;;17.05;51.01;95890.97;5031540;28;20415;-71
2024/02/08 13:28:24;;;;;;;8.97;2.10;;;;;;;17.08;50.83;95887.06;5033451;28;20183;-70
2024/02/08 13:30:52;;;;;;;7.40;2.20;;;;;;;17.26;50.62;95888.81;5027620;28;20457;-70
2024/02/08 13:33:17;;;;;;;9.13;2.27;;;;;;;17.32;50.43;95883.44;5031036;28;20418;-71
2024/02/08 13:35:43;;;;;;;10.17;2.23;;;;;;;16.97;50.47;95875.38;5031025;28;20418;-69
2024/02/08 13:38:12;;;;;;;13.27;2.97;;;;;;;16.89;50.69;95876.47;5028670;28;20231;-70
2024/02/08 13:40:42;;;;;;;15.00;2.57;;;;;;;16.97;50.76;95868.28;5042159;28;20446;-71
2024/02/08 13:43:10;;;;;;;9.87;2.37;;;;;;;17.02;50.47;95875.53;5023090;28;20418;-71
2024/02/08 13:45:38;;;;;;;11.17;3.07;;;;;;;16.96;50.29;95871.94;5030423;28;20418;-70
2024/02/08 13:48:05;;;;;;;10.77;2.90;;;;;;;17.15;50.08;95861.28;5029327;28;20494;-70
2024/02/08 13:50:30;;;;;;;9.17;2.30;;;;;;;17.27;49.71;95856.81;5048334;28;20995;-70
2024/02/08 13:52:56;;;;;;;13.40;2.10;;;;;;;17.11;49.89;95866.22;5028491;28;20419;-71
2024/02/08 13:55:25;;;;;;;9.40;2.53;;;;;;;17.23;49.71;95879.50;5029578;28;20203;-72